Lake Cumberland Regional Airport Somerset US
ICAO: KSME
IATA: SME
Category: Medium
Scheduled Services: No

Elevation: 927 ft
TransAlt. 18000 ft.

Airport Communications:
AWOS 3:124.85
INDIANAPOLIS CNTR:121.325
LOUISVILLE RDO:122.55
CTAF/UNICOM:122.8

KSME Zoom In..

If you have problems with the map follow the link
https://www.worldairports.se/pages/airport.php?
ICAO=KSME

Runways:

(A) RW 05 length 5799 ft width 100 ft
ILS 109.30 / hdg 48

(B) RW 23 length 5799 ft width 100 ft
---- / hdg 228

Location; KSME
Day. 16 / Time. 01.55 Zulu
* Altimeter: 30.00
* Temperature: 05° c. 41°f.
* Wind from: 090° Speed 04 kn.
Dewpoint: 01° c.
Visibility: 10 Statute Miles.
Clouds: Broken 3500 ft.
Clouds: Overcast 4200 ft.

KSME 160155Z AUTO 09004KT 10SM BKN035 OVC042 05/01 A3000 RMK AO2


Wind From 090°
Speed 04 kn.

 
 
jpsmedia worldairports.se 2019   terms of use